createdAt,value
2016-11-10T00:00:52.099Z,98907
2016-11-10T00:02:52.235Z,98908
2016-11-10T00:04:50.879Z,98911
2016-11-10T00:06:52.208Z,98911
2016-11-10T00:08:50.963Z,98910
2016-11-10T00:10:51.033Z,98912
2016-11-10T00:12:52.474Z,98912
2016-11-10T00:14:52.444Z,98914
2016-11-10T00:16:51.230Z,98914
2016-11-10T00:18:52.605Z,98920
2016-11-10T00:20:52.651Z,98926
2016-11-10T00:22:51.331Z,98934
2016-11-10T00:24:51.393Z,98936
2016-11-10T00:26:51.401Z,98935
2016-11-10T00:28:51.461Z,98938
2016-11-10T00:30:51.510Z,98940
2016-11-10T00:32:51.614Z,98941
2016-11-10T00:34:51.605Z,98942
2016-11-10T00:36:51.631Z,98943
2016-11-10T00:38:51.678Z,98949
2016-11-10T00:40:53.134Z,98948
2016-11-10T00:42:51.835Z,98950
2016-11-10T00:44:51.893Z,98953
2016-11-10T00:46:51.997Z,98954
2016-11-10T00:48:51.935Z,98957
2016-11-10T00:50:51.927Z,98959
2016-11-10T00:52:52.034Z,98963
2016-11-10T00:54:52.116Z,98968
2016-11-10T00:56:52.196Z,98973
2016-11-10T00:58:52.251Z,98977
2016-11-10T01:00:53.713Z,98977
2016-11-10T01:02:52.345Z,98978
2016-11-10T01:04:53.729Z,98982
2016-11-10T01:06:52.472Z,98983
2016-11-10T01:08:53.824Z,98986
2016-11-10T01:10:53.923Z,98992
2016-11-10T01:12:53.971Z,98991
2016-11-10T01:14:52.637Z,98990
2016-11-10T01:16:52.686Z,98991
2016-11-10T01:18:54.077Z,98993
2016-11-10T01:20:52.705Z,98994
2016-11-10T01:22:52.840Z,98998
2016-11-10T01:24:54.227Z,99002
2016-11-10T01:26:54.350Z,99004
2016-11-10T01:28:52.998Z,99008
2016-11-10T01:30:54.331Z,99010
2016-11-10T01:32:53.131Z,99009
2016-11-10T01:34:53.060Z,99011
2016-11-10T01:36:54.543Z,99012
2016-11-10T01:38:53.225Z,99013
2016-11-10T01:40:53.323Z,99021
2016-11-10T01:42:54.656Z,99019
2016-11-10T01:44:54.683Z,99027
2016-11-10T01:46:54.772Z,99028
2016-11-10T01:48:54.772Z,99040
2016-11-10T01:50:54.801Z,99036
2016-11-10T01:52:54.876Z,99038
2016-11-10T01:54:53.569Z,99038
2016-11-10T01:56:54.988Z,99038
2016-11-10T01:58:55.019Z,99035
2016-11-10T02:00:53.685Z,99039
2016-11-10T02:02:55.086Z,99037
2016-11-10T02:04:55.130Z,99040
2016-11-10T02:06:53.759Z,99046
2016-11-10T02:08:55.237Z,99045
2016-11-10T02:10:54.753Z,99044
2016-11-10T02:12:53.911Z,99040
2016-11-10T02:14:53.942Z,99043
2016-11-10T02:16:54.013Z,99042
2016-11-10T02:18:54.143Z,99046
2016-11-10T02:20:54.198Z,99047
2016-11-10T02:22:54.271Z,99048
2016-11-10T02:24:55.595Z,99044
2016-11-10T02:26:55.605Z,99047
2016-11-10T02:28:54.327Z,99050
2016-11-10T02:30:54.269Z,99055
2016-11-10T02:32:55.735Z,99059
2016-11-10T02:34:54.369Z,99056
2016-11-10T02:36:54.431Z,99059
2016-11-10T02:38:55.843Z,99065
2016-11-10T02:40:55.833Z,99065
2016-11-10T02:42:54.545Z,99071
2016-11-10T02:44:55.987Z,99079
2016-11-10T02:46:56.091Z,99080
2016-11-10T02:48:56.115Z,99084
2016-11-10T02:50:56.190Z,99085
2016-11-10T02:52:56.217Z,99090
2016-11-10T02:54:56.307Z,99094
2016-11-10T02:56:54.913Z,99095
2016-11-10T02:58:56.418Z,99100
2016-11-10T03:00:56.398Z,99100
2016-11-10T03:02:55.191Z,99100
2016-11-10T03:04:55.346Z,99104
2016-11-10T03:06:56.611Z,99105
2016-11-10T03:08:56.695Z,99106
2016-11-10T03:10:55.524Z,99104
2016-11-10T03:12:55.473Z,99110
2016-11-10T03:14:55.533Z,99111
2016-11-10T03:16:55.581Z,99112
2016-11-10T03:18:55.668Z,99115
2016-11-10T03:20:56.638Z,99117
2016-11-10T03:22:56.653Z,99117
2016-11-10T03:24:57.031Z,99117
2016-11-10T03:26:55.682Z,99120
2016-11-10T03:28:57.146Z,99123
2016-11-10T03:30:55.820Z,99120
2016-11-10T03:32:55.896Z,99118
2016-11-10T03:34:55.999Z,99120
2016-11-10T03:36:57.296Z,99123
2016-11-10T03:38:57.438Z,99125
2016-11-10T03:40:57.546Z,99123
2016-11-10T03:42:56.113Z,99127
2016-11-10T03:44:56.243Z,99127
2016-11-10T03:46:57.655Z,99127
2016-11-10T03:48:56.507Z,99128
2016-11-10T03:50:58.328Z,99127
2016-11-10T03:52:57.758Z,99123
2016-11-10T03:54:56.431Z,99126
2016-11-10T03:56:57.858Z,99130
2016-11-10T03:58:56.596Z,99126
2016-11-10T04:00:56.575Z,99127
2016-11-10T04:02:58.080Z,99132
2016-11-10T04:04:56.723Z,99131
2016-11-10T04:06:58.055Z,99127
2016-11-10T04:08:56.685Z,99126
2016-11-10T04:10:56.708Z,99128
2016-11-10T04:12:56.807Z,99127
2016-11-10T04:14:56.780Z,99131
2016-11-10T04:16:58.229Z,99126
2016-11-10T04:18:58.306Z,99129
2016-11-10T04:20:56.911Z,99134
2016-11-10T04:22:57.104Z,99138
2016-11-10T04:24:57.081Z,99141
2016-11-10T04:26:57.073Z,99143
2016-11-10T04:28:57.183Z,99144
2016-11-10T04:30:58.636Z,99143
2016-11-10T04:32:57.454Z,99145
2016-11-10T04:34:57.486Z,99143
2016-11-10T04:36:58.721Z,99149
2016-11-10T04:38:57.399Z,99150
2016-11-10T04:40:58.819Z,99153
2016-11-10T04:42:57.495Z,99156
2016-11-10T04:44:58.873Z,99154
2016-11-10T04:46:57.578Z,99164
2016-11-10T04:48:58.960Z,99167
2016-11-10T04:50:57.572Z,99171
2016-11-10T04:52:57.671Z,99167
2016-11-10T04:54:57.772Z,99163
2016-11-10T04:56:57.847Z,99158
2016-11-10T04:58:59.203Z,99154
2016-11-10T05:00:57.958Z,99158
2016-11-10T05:02:59.331Z,99155
2016-11-10T05:04:59.369Z,99161
2016-11-10T05:06:59.410Z,99162
2016-11-10T05:08:59.460Z,99168
2016-11-10T05:10:59.511Z,99167
2016-11-10T05:12:59.622Z,99173
2016-11-10T05:14:58.385Z,99174
2016-11-10T05:16:59.798Z,99175
2016-11-10T05:18:58.472Z,99175
2016-11-10T05:20:59.900Z,99177
2016-11-10T05:22:58.607Z,99169
2016-11-10T05:25:00.061Z,99170
2016-11-10T05:27:00.209Z,99170
2016-11-10T05:28:58.839Z,99175
2016-11-10T05:30:58.949Z,99179
2016-11-10T05:33:00.351Z,99181
2016-11-10T05:35:00.353Z,99188
2016-11-10T05:36:59.014Z,99188
2016-11-10T05:39:00.486Z,99190
2016-11-10T05:40:59.119Z,99192
2016-11-10T05:43:00.478Z,99197
2016-11-10T05:44:59.242Z,99199
2016-11-10T05:47:00.664Z,99198
2016-11-10T05:48:59.313Z,99202
2016-11-10T05:51:00.675Z,99209
2016-11-10T05:53:00.706Z,99213
2016-11-10T05:55:00.736Z,99221
2016-11-10T05:57:00.803Z,99223
2016-11-10T05:59:00.904Z,99221
2016-11-10T06:00:59.520Z,99227
2016-11-10T06:02:59.524Z,99226
2016-11-10T06:04:59.651Z,99226
2016-11-10T06:07:01.089Z,99229
2016-11-10T06:09:01.098Z,99234
2016-11-10T06:11:01.199Z,99233
2016-11-10T06:12:59.855Z,99232
2016-11-10T06:14:59.863Z,99241
2016-11-10T06:17:01.257Z,99238
2016-11-10T06:19:01.284Z,99240
2016-11-10T06:21:01.365Z,99245
2016-11-10T06:23:01.442Z,99247
2016-11-10T06:25:02.103Z,99247
2016-11-10T06:27:00.232Z,99252
2016-11-10T06:29:01.630Z,99251
2016-11-10T06:31:00.318Z,99251
2016-11-10T06:33:01.727Z,99256
2016-11-10T06:35:03.642Z,99260
2016-11-10T06:37:00.472Z,99264
2016-11-10T06:39:00.560Z,99264
2016-11-10T06:41:01.195Z,99269
2016-11-10T06:43:00.461Z,99274
2016-11-10T06:45:01.849Z,99273
2016-11-10T06:47:01.917Z,99279
2016-11-10T06:49:01.957Z,99281
2016-11-10T06:51:02.001Z,99284
2016-11-10T06:53:02.022Z,99287
2016-11-10T06:55:00.683Z,99289
2016-11-10T06:57:00.785Z,99292
2016-11-10T06:59:00.874Z,99289
2016-11-10T07:01:00.780Z,99293
2016-11-10T07:03:00.813Z,99295
2016-11-10T07:05:02.254Z,99298
2016-11-10T07:07:02.198Z,99294
2016-11-10T07:09:02.263Z,99300
2016-11-10T07:11:00.941Z,99307
2016-11-10T07:13:01.055Z,99306
2016-11-10T07:15:02.430Z,99308
2016-11-10T07:17:01.056Z,99312
2016-11-10T07:19:01.179Z,99311
2016-11-10T07:21:01.218Z,99314
2016-11-10T07:23:01.271Z,99315
2016-11-10T07:25:01.375Z,99317
2016-11-10T07:27:01.427Z,99318
2016-11-10T07:29:01.637Z,99324
2016-11-10T07:31:01.509Z,99330
2016-11-10T07:33:02.948Z,99323
2016-11-10T07:35:01.618Z,99328
2016-11-10T07:37:03.552Z,99331
2016-11-10T07:39:01.661Z,99329
2016-11-10T07:41:03.800Z,99332
2016-11-10T07:43:01.817Z,99334
2016-11-10T07:45:03.232Z,99339
2016-11-10T07:47:01.973Z,99335
2016-11-10T07:49:01.989Z,99336
2016-11-10T07:51:01.958Z,99340
2016-11-10T07:53:01.992Z,99339
2016-11-10T07:55:03.363Z,99343
2016-11-10T07:57:03.471Z,99342
2016-11-10T07:59:02.132Z,99343
2016-11-10T08:01:03.530Z,99342
2016-11-10T08:03:02.929Z,99341
2016-11-10T08:05:03.640Z,99349
2016-11-10T08:07:02.918Z,99346
2016-11-10T08:09:02.425Z,99345
2016-11-10T08:11:02.527Z,99344
2016-11-10T08:13:03.901Z,99350
2016-11-10T08:15:03.986Z,99350
2016-11-10T08:17:04.059Z,99352
2016-11-10T08:19:04.051Z,99354
2016-11-10T08:21:04.185Z,99356
2016-11-10T08:23:02.823Z,99355
2016-11-10T08:25:05.486Z,99354
2016-11-10T08:27:02.872Z,99356
2016-11-10T08:29:02.904Z,99352
2016-11-10T08:31:04.337Z,99354
2016-11-10T08:33:04.307Z,99347
2016-11-10T08:35:04.490Z,99354
2016-11-10T08:37:05.664Z,99353
2016-11-10T08:39:04.446Z,99350
2016-11-10T08:41:03.267Z,99353
2016-11-10T08:43:03.161Z,99358
2016-11-10T08:45:04.612Z,99356
2016-11-10T08:47:03.852Z,99359
2016-11-10T08:49:05.388Z,99362
2016-11-10T08:51:03.398Z,99361
2016-11-10T08:53:04.734Z,99366
2016-11-10T08:55:05.541Z,99366
2016-11-10T08:57:03.513Z,99370
2016-11-10T08:59:04.207Z,99366
2016-11-10T09:01:03.571Z,99364
2016-11-10T09:03:04.925Z,99367
2016-11-10T09:05:05.005Z,99368
2016-11-10T09:07:05.081Z,99363
2016-11-10T09:09:05.705Z,99364
2016-11-10T09:11:06.302Z,99371
2016-11-10T09:13:06.087Z,99372
2016-11-10T09:15:04.909Z,99375
2016-11-10T09:17:06.709Z,99364
2016-11-10T09:19:07.308Z,99374
2016-11-10T09:21:05.705Z,99374
2016-11-10T09:23:06.740Z,99374
2016-11-10T09:25:04.898Z,99374
2016-11-10T09:27:04.179Z,99385
2016-11-10T09:29:04.275Z,99387
2016-11-10T09:31:08.907Z,99389
2016-11-10T09:33:07.713Z,99386
2016-11-10T09:35:05.480Z,99381
2016-11-10T09:37:05.807Z,99385
2016-11-10T09:39:05.811Z,99383
2016-11-10T09:41:07.163Z,99385
2016-11-10T09:43:05.858Z,99390
2016-11-10T09:45:05.339Z,99384
2016-11-10T09:47:05.347Z,99386
2016-11-10T09:49:06.828Z,99389
2016-11-10T09:51:07.173Z,99386
2016-11-10T09:53:06.715Z,99385
2016-11-10T09:55:07.548Z,99388
2016-11-10T09:57:06.936Z,99384
2016-11-10T09:59:07.635Z,99384
2016-11-10T10:01:06.377Z,99385
2016-11-10T10:03:05.104Z,99382
2016-11-10T10:05:05.063Z,99381
2016-11-10T10:07:05.075Z,99381
2016-11-10T10:09:05.040Z,99380
2016-11-10T10:11:05.173Z,99378
2016-11-10T10:13:05.872Z,99374
2016-11-10T10:15:07.179Z,99375
2016-11-10T10:17:08.870Z,99377
2016-11-10T10:19:06.630Z,99372
2016-11-10T10:21:08.081Z,99370
2016-11-10T10:23:07.351Z,99375
2016-11-10T10:25:06.759Z,99372
2016-11-10T10:27:06.096Z,99378
2016-11-10T10:29:06.275Z,99372
2016-11-10T10:31:06.275Z,99370
2016-11-10T10:33:07.535Z,99369
2016-11-10T10:35:05.659Z,99370
2016-11-10T10:37:06.978Z,99371
2016-11-10T10:39:05.756Z,99369
2016-11-10T10:41:05.790Z,99366
2016-11-10T10:43:05.847Z,99366
2016-11-10T10:45:06.478Z,99360
2016-11-10T10:47:05.966Z,99362
2016-11-10T10:49:07.946Z,99356
2016-11-10T10:51:10.663Z,99360
2016-11-10T10:53:10.012Z,99357
2016-11-10T10:55:06.816Z,99361
2016-11-10T10:57:09.378Z,99365
2016-11-10T10:59:09.327Z,99358
2016-11-10T11:01:11.141Z,99358
2016-11-10T11:03:12.895Z,99361
2016-11-10T11:05:14.567Z,99357
2016-11-10T11:07:11.364Z,99353
2016-11-10T11:09:07.725Z,99349
2016-11-10T11:11:07.801Z,99350
2016-11-10T11:13:08.416Z,99350
2016-11-10T11:15:08.424Z,99346
2016-11-10T11:17:07.896Z,99350
2016-11-10T11:19:07.919Z,99349
2016-11-10T11:21:09.756Z,99344
2016-11-10T11:23:08.566Z,99347
2016-11-10T11:25:09.435Z,99340
2016-11-10T11:27:10.002Z,99342
2016-11-10T11:29:08.242Z,99344
2016-11-10T11:31:10.051Z,99340
2016-11-10T11:33:06.889Z,99344
2016-11-10T11:35:08.975Z,99341
2016-11-10T11:37:07.024Z,99338
2016-11-10T11:39:09.065Z,99337
2016-11-10T11:41:09.834Z,99330
2016-11-10T11:43:08.332Z,99336
2016-11-10T11:45:08.610Z,99333
2016-11-10T11:47:07.274Z,99329
2016-11-10T11:49:10.006Z,99330
2016-11-10T11:51:07.426Z,99334
2016-11-10T11:53:08.794Z,99329
2016-11-10T11:55:09.800Z,99336
2016-11-10T11:57:11.303Z,99331
2016-11-10T11:59:10.189Z,99324
2016-11-10T12:01:07.699Z,99326
2016-11-10T12:03:07.796Z,99328
2016-11-10T12:05:09.146Z,99327
2016-11-10T12:07:08.611Z,99327
2016-11-10T12:09:07.920Z,99329
2016-11-10T12:11:09.961Z,99327
2016-11-10T12:13:09.332Z,99325
2016-11-10T12:15:11.329Z,99328
2016-11-10T12:17:11.966Z,99331
2016-11-10T12:19:08.664Z,99331
2016-11-10T12:21:08.617Z,99326
2016-11-10T12:23:11.877Z,99329
2016-11-10T12:25:09.971Z,99326
2016-11-10T12:27:09.575Z,99330
2016-11-10T12:29:09.556Z,99324
2016-11-10T12:31:09.759Z,99327
2016-11-10T12:33:08.415Z,99327
2016-11-10T12:35:08.944Z,99335
2016-11-10T12:37:08.583Z,99336
2016-11-10T12:39:09.331Z,99334
2016-11-10T12:41:08.695Z,99339
2016-11-10T12:43:10.184Z,99336
2016-11-10T12:45:10.078Z,99336
2016-11-10T12:47:09.443Z,99340
2016-11-10T12:49:12.736Z,99328
2016-11-10T12:51:09.478Z,99328
2016-11-10T12:53:09.546Z,99328
2016-11-10T12:55:10.303Z,99324
2016-11-10T12:57:10.358Z,99326
2016-11-10T12:59:10.347Z,99327
2016-11-10T13:01:12.111Z,99319
2016-11-10T13:03:10.425Z,99319
2016-11-10T13:05:10.492Z,99315
2016-11-10T13:07:11.238Z,99308
2016-11-10T13:09:11.530Z,99313
2016-11-10T13:11:11.207Z,99308
2016-11-10T13:13:09.367Z,99310
2016-11-10T13:15:09.984Z,99313
2016-11-10T13:17:10.049Z,99310
2016-11-10T13:19:09.425Z,99311
2016-11-10T13:21:09.583Z,99310
2016-11-10T13:23:10.893Z,99311
2016-11-10T13:25:10.311Z,99310
2016-11-10T13:27:09.671Z,99306
2016-11-10T13:29:09.773Z,99309
2016-11-10T13:31:11.172Z,99309
2016-11-10T13:33:13.032Z,99307
2016-11-10T13:35:12.448Z,99310
2016-11-10T13:37:09.979Z,99309
2016-11-10T13:39:10.772Z,99310
2016-11-10T13:41:10.124Z,99312
2016-11-10T13:43:11.465Z,99314
2016-11-10T13:45:11.477Z,99308
2016-11-10T13:47:10.159Z,99311
2016-11-10T13:49:11.503Z,99311
2016-11-10T13:51:11.572Z,99312
2016-11-10T13:53:13.040Z,99311
2016-11-10T13:55:11.703Z,99307
2016-11-10T13:57:10.331Z,99309
2016-11-10T13:59:12.511Z,99308
2016-11-10T14:01:11.137Z,99319
2016-11-10T14:03:10.519Z,99314
2016-11-10T14:05:10.618Z,99309
2016-11-10T14:07:10.688Z,99312
2016-11-10T14:09:11.283Z,99314
2016-11-10T14:11:12.198Z,99314
2016-11-10T14:13:13.746Z,99315
2016-11-10T14:15:10.835Z,99314
2016-11-10T14:17:10.992Z,99316
2016-11-10T14:19:11.002Z,99320
2016-11-10T14:21:13.343Z,99316
2016-11-10T14:23:13.874Z,99319
2016-11-10T14:25:13.091Z,99316
2016-11-10T14:27:13.999Z,99318
2016-11-10T14:29:13.503Z,99315
2016-11-10T14:31:11.412Z,99319
2016-11-10T14:33:12.157Z,99317
2016-11-10T14:35:12.925Z,99321
2016-11-10T14:37:13.482Z,99325
2016-11-10T14:39:12.973Z,99325
2016-11-10T14:41:13.527Z,99321
2016-11-10T14:43:13.612Z,99323
2016-11-10T14:45:11.691Z,99331
2016-11-10T14:47:13.767Z,99328
2016-11-10T14:49:13.101Z,99328
2016-11-10T14:51:11.799Z,99329
2016-11-10T14:53:13.197Z,99325
2016-11-10T14:55:11.848Z,99329
2016-11-10T14:57:12.707Z,99328
2016-11-10T14:59:14.044Z,99329
2016-11-10T15:01:13.968Z,99326
2016-11-10T15:03:13.558Z,99326
2016-11-10T15:05:13.504Z,99335
2016-11-10T15:07:14.491Z,99325
2016-11-10T15:09:14.765Z,99331
2016-11-10T15:11:14.365Z,99329
2016-11-10T15:13:13.185Z,99328
2016-11-10T15:15:12.460Z,99331
2016-11-10T15:17:13.952Z,99332
2016-11-10T15:19:13.627Z,99332
2016-11-10T15:23:14.747Z,99335
2016-11-10T15:25:14.759Z,99330
2016-11-10T15:27:14.178Z,99328
2016-11-10T15:29:14.784Z,99332
2016-11-10T15:31:13.717Z,99331
2016-11-10T15:33:12.963Z,99332
2016-11-10T15:35:14.962Z,99329
2016-11-10T15:37:14.975Z,99332
2016-11-10T15:39:15.205Z,99330
2016-11-10T15:41:13.244Z,99333
2016-11-10T15:43:15.184Z,99333
2016-11-10T15:45:13.244Z,99331
2016-11-10T15:47:13.257Z,99336
2016-11-10T15:49:14.705Z,99330
2016-11-10T15:51:14.799Z,99334
2016-11-10T15:53:15.561Z,99336
2016-11-10T15:55:14.837Z,99339
2016-11-10T15:57:16.737Z,99343
2016-11-10T15:59:13.666Z,99341
2016-11-10T16:01:15.065Z,99343
2016-11-10T16:03:13.722Z,99348
2016-11-10T16:05:13.753Z,99346
2016-11-10T16:07:15.167Z,99343
2016-11-10T16:09:15.133Z,99345
2016-11-10T16:11:15.244Z,99345
2016-11-10T16:13:14.403Z,99345
2016-11-10T16:15:15.271Z,99348
2016-11-10T16:17:13.957Z,99354
2016-11-10T16:19:15.333Z,99344
2016-11-10T16:21:15.348Z,99350
2016-11-10T16:23:15.372Z,99349
2016-11-10T16:25:14.039Z,99349
2016-11-10T16:27:15.496Z,99347
2016-11-10T16:29:16.811Z,99349
2016-11-10T16:31:15.627Z,99354
2016-11-10T16:33:14.311Z,99347
2016-11-10T16:35:14.364Z,99348
2016-11-10T16:37:15.772Z,99350
2016-11-10T16:39:16.600Z,99348
2016-11-10T16:41:14.639Z,99349
2016-11-10T16:43:14.620Z,99354
2016-11-10T16:45:15.981Z,99347
2016-11-10T16:47:16.082Z,99344
2016-11-10T16:49:14.788Z,99347
2016-11-10T16:51:14.874Z,99353
2016-11-10T16:53:14.871Z,99348
2016-11-10T16:55:16.323Z,99352
2016-11-10T16:57:16.632Z,99350
2016-11-10T16:59:14.998Z,99356
2016-11-10T17:01:15.010Z,99359
2016-11-10T17:03:15.029Z,99354
2016-11-10T17:05:15.177Z,99352
2016-11-10T17:07:15.199Z,99355
2016-11-10T17:09:16.550Z,99356
2016-11-10T17:11:16.619Z,99351
2016-11-10T17:13:15.272Z,99351
2016-11-10T17:15:15.238Z,99351
2016-11-10T17:17:15.314Z,99349
2016-11-10T17:19:17.370Z,99351
2016-11-10T17:21:15.452Z,99349
2016-11-10T17:23:16.845Z,99350
2016-11-10T17:25:16.877Z,99355
2016-11-10T17:27:16.902Z,99354
2016-11-10T17:29:15.605Z,99356
2016-11-10T17:31:15.623Z,99359
2016-11-10T17:33:17.042Z,99362
2016-11-10T17:35:15.813Z,99365
2016-11-10T17:37:17.144Z,99372
2016-11-10T17:39:17.142Z,99370
2016-11-10T17:41:17.222Z,99370
2016-11-10T17:43:17.213Z,99367
2016-11-10T17:45:15.945Z,99370
2016-11-10T17:47:18.003Z,99366
2016-11-10T17:49:16.627Z,99370
2016-11-10T17:51:17.410Z,99370
2016-11-10T17:53:17.503Z,99370
2016-11-10T17:55:16.083Z,99374
2016-11-10T17:57:17.518Z,99371
2016-11-10T17:59:17.513Z,99370
2016-11-10T18:01:16.188Z,99370
2016-11-10T18:03:17.534Z,99372
2016-11-10T18:05:16.215Z,99378
2016-11-10T18:07:16.280Z,99378
2016-11-10T18:09:17.675Z,99380
2016-11-10T18:11:17.800Z,99375
2016-11-10T18:13:17.739Z,99377
2016-11-10T18:15:17.841Z,99376
2016-11-10T18:17:16.518Z,99377
2016-11-10T18:19:17.798Z,99375
2016-11-10T18:21:17.874Z,99375
2016-11-10T18:23:17.938Z,99372
2016-11-10T18:25:16.612Z,99370
2016-11-10T18:27:16.599Z,99366
2016-11-10T18:29:18.066Z,99366
2016-11-10T18:31:19.056Z,99368
2016-11-10T18:33:16.760Z,99361
2016-11-10T18:35:16.874Z,99362
2016-11-10T18:37:16.896Z,99357
2016-11-10T18:39:18.212Z,99363
2016-11-10T18:41:16.892Z,99366
2016-11-10T18:43:17.009Z,99363
2016-11-10T18:45:17.073Z,99362
2016-11-10T18:47:17.165Z,99363
2016-11-10T18:49:18.549Z,99359
2016-11-10T18:51:17.238Z,99359
2016-11-10T18:53:18.597Z,99363
2016-11-10T18:55:17.302Z,99361
2016-11-10T18:57:18.071Z,99361
2016-11-10T18:59:18.763Z,99362
2016-11-10T19:01:18.791Z,99358
2016-11-10T19:03:18.910Z,99361
2016-11-10T19:05:17.670Z,99359
2016-11-10T19:07:17.697Z,99350
2016-11-10T19:09:19.035Z,99347
2016-11-10T19:11:19.148Z,99344
2016-11-10T19:13:19.179Z,99339
2016-11-10T19:15:19.257Z,99334
2016-11-10T19:17:19.267Z,99332
2016-11-10T19:19:19.262Z,99334
2016-11-10T19:21:17.915Z,99342
2016-11-10T19:23:17.996Z,99342
2016-11-10T19:25:17.966Z,99342
2016-11-10T19:27:19.383Z,99333
2016-11-10T19:29:19.423Z,99336
2016-11-10T19:31:19.401Z,99337
2016-11-10T19:33:18.143Z,99331
2016-11-10T19:35:19.567Z,99337
2016-11-10T19:37:19.562Z,99330
2016-11-10T19:39:18.283Z,99330
2016-11-10T19:41:18.395Z,99326
2016-11-10T19:43:19.767Z,99326
2016-11-10T19:45:18.491Z,99325
2016-11-10T19:47:18.590Z,99327
2016-11-10T19:49:19.959Z,99331
2016-11-10T19:51:19.905Z,99325
2016-11-10T19:53:20.022Z,99322
2016-11-10T19:55:20.088Z,99320
2016-11-10T19:57:20.171Z,99316
2016-11-10T19:59:18.889Z,99316
2016-11-10T20:01:18.865Z,99315
2016-11-10T20:03:19.002Z,99310
2016-11-10T20:05:20.349Z,99310
2016-11-10T20:07:18.985Z,99306
2016-11-10T20:09:19.068Z,99308
2016-11-10T20:11:20.484Z,99305
2016-11-10T20:13:20.571Z,99308
2016-11-10T20:15:20.673Z,99307
2016-11-10T20:17:19.363Z,99303
2016-11-10T20:19:19.426Z,99303
2016-11-10T20:21:19.400Z,99304
2016-11-10T20:23:19.431Z,99306
2016-11-10T20:25:20.848Z,99309
2016-11-10T20:27:20.905Z,99308
2016-11-10T20:29:20.925Z,99306
2016-11-10T20:31:19.669Z,99306
2016-11-10T20:33:19.710Z,99309
2016-11-10T20:35:20.317Z,99304
2016-11-10T20:37:21.184Z,99306
2016-11-10T20:39:20.177Z,99305
2016-11-10T20:41:21.212Z,99308
2016-11-10T20:43:25.245Z,99312
2016-11-10T20:45:24.586Z,99309
2016-11-10T20:47:25.168Z,99310
2016-11-10T20:49:20.061Z,99306
2016-11-10T20:51:23.896Z,99305
2016-11-10T20:53:22.564Z,99304
2016-11-10T20:55:21.519Z,99304
2016-11-10T20:57:21.855Z,99304
2016-11-10T20:59:21.639Z,99301
2016-11-10T21:01:21.703Z,99301
2016-11-10T21:03:21.769Z,99302
2016-11-10T21:05:21.896Z,99302
2016-11-10T21:07:20.623Z,99305
2016-11-10T21:09:23.739Z,99308
2016-11-10T21:11:23.006Z,99316
2016-11-10T21:13:22.061Z,99326
2016-11-10T21:15:20.737Z,99331
2016-11-10T21:17:20.782Z,99328
2016-11-10T21:19:22.141Z,99329
2016-11-10T21:21:20.944Z,99329
2016-11-10T21:23:20.951Z,99331
2016-11-10T21:25:22.451Z,99332
2016-11-10T21:27:21.183Z,99330
2016-11-10T21:29:22.549Z,99329
2016-11-10T21:31:22.605Z,99332
2016-11-10T21:33:22.677Z,99331
2016-11-10T21:35:21.452Z,99332
2016-11-10T21:37:21.487Z,99334
2016-11-10T21:39:22.841Z,99337
2016-11-10T21:41:21.459Z,99333
2016-11-10T21:43:22.865Z,99333
2016-11-10T21:45:21.526Z,99337
2016-11-10T21:47:21.529Z,99342
2016-11-10T21:49:21.512Z,99336
2016-11-10T21:51:21.547Z,99335
2016-11-10T21:53:21.638Z,99336
2016-11-10T21:55:23.081Z,99333
2016-11-10T21:57:23.045Z,99332
2016-11-10T21:59:23.204Z,99334
2016-11-10T22:01:21.861Z,99332
2016-11-10T22:03:23.245Z,99321
2016-11-10T22:05:22.007Z,99320
2016-11-10T22:07:23.398Z,99318
2016-11-10T22:09:22.101Z,99316
2016-11-10T22:11:23.547Z,99314
2016-11-10T22:13:22.184Z,99318
2016-11-10T22:15:23.606Z,99316
2016-11-10T22:17:22.299Z,99315
2016-11-10T22:19:22.347Z,99316
2016-11-10T22:21:22.428Z,99316
2016-11-10T22:23:23.833Z,99315
2016-11-10T22:25:22.416Z,99313
2016-11-10T22:27:23.824Z,99316
2016-11-10T22:29:23.926Z,99316
2016-11-10T22:31:23.961Z,99311
2016-11-10T22:33:22.768Z,99317
2016-11-10T22:35:24.184Z,99313
2016-11-10T22:37:24.161Z,99313
2016-11-10T22:39:24.235Z,99312
2016-11-10T22:41:24.263Z,99314
2016-11-10T22:43:22.922Z,99308
2016-11-10T22:45:22.910Z,99316
2016-11-10T22:47:24.402Z,99314
2016-11-10T22:49:24.403Z,99310
2016-11-10T22:51:24.431Z,99308
2016-11-10T22:53:23.206Z,99309
2016-11-10T22:55:23.231Z,99307
2016-11-10T22:57:24.598Z,99309
2016-11-10T22:59:23.299Z,99313
2016-11-10T23:01:23.423Z,99307
2016-11-10T23:03:23.341Z,99313
2016-11-10T23:05:23.413Z,99311
2016-11-10T23:07:24.831Z,99313
2016-11-10T23:09:24.908Z,99311
2016-11-10T23:11:23.602Z,99313
2016-11-10T23:13:24.939Z,99312
2016-11-10T23:15:23.634Z,99309
2016-11-10T23:17:25.074Z,99309
2016-11-10T23:19:23.712Z,99307
2016-11-10T23:21:23.749Z,99308
2016-11-10T23:23:23.833Z,99305
2016-11-10T23:25:23.853Z,99305
2016-11-10T23:27:23.872Z,99308
2016-11-10T23:29:23.926Z,99306
2016-11-10T23:31:24.007Z,99309
2016-11-10T23:33:24.054Z,99309
2016-11-10T23:35:24.149Z,99312
2016-11-10T23:37:25.571Z,99314
2016-11-10T23:39:25.599Z,99319
2016-11-10T23:41:24.324Z,99317
2016-11-10T23:43:25.756Z,99322
2016-11-10T23:45:24.425Z,99326
2016-11-10T23:47:25.844Z,99330
2016-11-10T23:49:24.519Z,99336
2016-11-10T23:51:24.567Z,99341
2016-11-10T23:53:25.953Z,99341
2016-11-10T23:55:24.622Z,99343
2016-11-10T23:57:24.689Z,99343
2016-11-10T23:59:26.099Z,99340
